Time;durP1;ratioP1;P1;durP2;ratioP2;P2;SDS_P1;SDS_P2;PMS_P1;PMS_P2;Temp;Humidity;BMP_temperature;BMP_pressure;BME280_temperature;BME280_humidity;BME280_pressure;Samples;Min_cycle;Max_cycle;Signal;HPM_P1;HPM_P2
2023/10/21 00:00:30;;;;;;;1.90;1.40;;;16.70;84.40;;;;;;4978746;28;20552;-90
2023/10/21 00:02:55;;;;;;;0.55;0.20;;;16.60;85.30;;;;;;4978191;28;20385;-89
2023/10/21 00:05:21;;;;;;;1.88;1.77;;;16.60;85.10;;;;;;4978059;28;20038;-86
2023/10/21 00:07:47;;;;;;;2.35;2.25;;;16.50;86.30;;;;;;4974809;28;20407;-88
2023/10/21 00:10:13;;;;;;;3.55;1.45;;;16.40;86.70;;;;;;4977930;28;20037;-88
2023/10/21 00:12:38;;;;;;;1.92;1.83;;;16.30;86.90;;;;;;4976939;28;20059;-91
2023/10/21 00:15:06;;;;;;;1.13;1.02;;;16.30;87.00;;;;;;4976869;28;20049;-88
2023/10/21 00:17:32;;;;;;;1.60;1.48;;;16.40;87.00;;;;;;4976200;28;20097;-87
2023/10/21 00:19:59;;;;;;;1.33;1.23;;;16.40;86.90;;;;;;4951881;28;20430;-92
2023/10/21 00:22:25;;;;;;;1.85;1.75;;;16.40;87.50;;;;;;4971850;28;20031;-89
2023/10/21 00:24:51;;;;;;;0.75;0.75;;;16.30;87.30;;;;;;4951228;28;20057;-88
2023/10/21 00:27:17;;;;;;;1.85;1.80;;;16.40;87.30;;;;;;4977328;28;20027;-90
2023/10/21 00:29:43;;;;;;;1.27;1.17;;;16.40;87.30;;;;;;4978188;28;20102;-90
2023/10/21 00:32:09;;;;;;;1.50;1.45;;;16.40;86.90;;;;;;4978099;28;20539;-90
2023/10/21 00:34:38;;;;;;;1.02;0.98;;;16.40;86.40;;;;;;4961176;28;20030;-89
2023/10/21 00:37:07;;;;;;;1.40;1.25;;;16.50;86.80;;;;;;4965967;28;20019;-90
2023/10/21 00:39:34;;;;;;;1.65;1.55;;;16.50;87.40;;;;;;4960744;28;20010;-90
2023/10/21 00:42:04;;;;;;;1.95;1.83;;;16.40;87.90;;;;;;4976750;28;20027;-89
2023/10/21 00:44:30;;;;;;;3.13;2.10;;;16.40;87.20;;;;;;4976661;28;20041;-88
2023/10/21 00:46:59;;;;;;;1.67;1.58;;;16.30;87.60;;;;;;4975749;28;20105;-87
2023/10/21 00:49:26;;;;;;;2.63;2.53;;;16.30;88.60;;;;;;4971494;28;20112;-91
2023/10/21 00:51:52;;;;;;;1.15;1.15;;;16.20;89.10;;;;;;4976162;28;20104;-89
2023/10/21 00:54:18;;;;;;;1.73;1.35;;;16.20;89.90;;;;;;4977244;28;20051;-88
2023/10/21 00:56:44;;;;;;;1.52;1.42;;;16.20;91.00;;;;;;4979949;28;20030;-88
2023/10/21 00:59:14;;;;;;;1.17;1.17;;;16.10;92.70;;;;;;4979953;28;20043;-90
2023/10/21 01:01:40;;;;;;;1.10;1.00;;;16.00;92.30;;;;;;4980719;28;20011;-89
2023/10/21 01:04:08;;;;;;;1.55;1.50;;;16.00;92.60;;;;;;4980860;28;20891;-90
2023/10/21 01:06:34;;;;;;;2.42;2.33;;;16.00;93.10;;;;;;4981211;28;20027;-89
2023/10/21 01:08:59;;;;;;;1.02;1.02;;;15.90;93.40;;;;;;4979368;28;20031;-90
2023/10/21 01:11:25;;;;;;;0.60;0.30;;;15.90;93.00;;;;;;4980431;28;20411;-91
2023/10/21 01:13:51;;;;;;;1.50;1.15;;;15.90;93.30;;;;;;4978726;28;20050;-88
2023/10/21 01:16:17;;;;;;;2.35;1.70;;;15.90;92.50;;;;;;4980627;28;20023;-89
2023/10/21 01:18:44;;;;;;;1.90;1.10;;;15.90;93.30;;;;;;4981598;28;20029;-89
2023/10/21 01:21:10;;;;;;;1.92;1.83;;;15.90;93.30;;;;;;4988579;28;20088;-87
2023/10/21 01:23:36;;;;;;;1.02;1.02;;;15.80;93.00;;;;;;4986672;28;20026;-89
2023/10/21 01:26:03;;;;;;;1.98;1.25;;;15.80;93.20;;;;;;4976928;28;20509;-89
2023/10/21 01:28:29;;;;;;;1.02;1.02;;;15.80;93.50;;;;;;4980450;28;20034;-89
2023/10/21 01:30:55;;;;;;;1.10;1.10;;;15.80;93.50;;;;;;4980965;28;20439;-89
2023/10/21 01:33:21;;;;;;;2.38;2.28;;;15.80;93.70;;;;;;4980332;28;20030;-90
2023/10/21 01:35:46;;;;;;;1.38;1.38;;;15.80;93.50;;;;;;4972165;28;20022;-90
2023/10/21 01:38:12;;;;;;;1.63;1.40;;;15.80;93.60;;;;;;4976085;28;20027;-89
2023/10/21 01:40:38;;;;;;;1.25;1.25;;;15.80;93.70;;;;;;4968409;28;20731;-87
2023/10/21 01:43:04;;;;;;;1.30;1.30;;;15.80;93.60;;;;;;4971784;28;20038;-92
2023/10/21 01:45:29;;;;;;;1.60;1.45;;;15.80;93.70;;;;;;4979942;28;20087;-89
2023/10/21 01:47:55;;;;;;;1.00;1.00;;;15.80;93.20;;;;;;4979017;28;20062;-89
2023/10/21 01:50:21;;;;;;;1.15;0.98;;;15.80;93.20;;;;;;4980706;28;20072;-89
2023/10/21 01:52:46;;;;;;;1.63;1.52;;;15.80;93.10;;;;;;4980252;28;20030;-87
2023/10/21 01:55:12;;;;;;;1.33;1.15;;;15.80;93.30;;;;;;4981167;28;20007;-89
2023/10/21 01:57:38;;;;;;;1.08;1.08;;;15.80;93.50;;;;;;4973951;28;20640;-90
2023/10/21 02:00:08;;;;;;;1.23;1.23;;;15.80;94.30;;;;;;4979849;28;20019;-88
2023/10/21 02:02:35;;;;;;;1.35;1.35;;;15.80;94.50;;;;;;4980594;28;20106;-89
2023/10/21 02:05:00;;;;;;;2.17;1.63;;;15.70;96.00;;;;;;4980531;28;20026;-89
2023/10/21 02:07:26;;;;;;;1.48;1.30;;;15.60;97.40;;;;;;4979799;28;20035;-89
2023/10/21 02:09:52;;;;;;;1.88;1.35;;;15.50;98.90;;;;;;4978924;28;20039;-89
2023/10/21 02:12:17;;;;;;;1.85;1.75;;;15.40;99.90;;;;;;4964646;28;20027;-88
2023/10/21 02:14:43;;;;;;;1.08;0.98;;;15.30;99.90;;;;;;4980191;28;20031;-89
2023/10/21 02:17:08;;;;;;;1.90;1.73;;;15.10;99.90;;;;;;4963182;28;20034;-88
2023/10/21 02:19:34;;;;;;;1.33;1.17;;;15.00;99.90;;;;;;4980927;28;20015;-89
2023/10/21 02:22:00;;;;;;;1.63;1.25;;;15.00;99.90;;;;;;4981443;28;20290;-89
2023/10/21 02:24:25;;;;;;;1.08;1.08;;;14.90;99.90;;;;;;4981348;28;20094;-89
2023/10/21 02:26:51;;;;;;;1.42;1.33;;;15.00;99.90;;;;;;4977447;28;20031;-87
2023/10/21 02:29:17;;;;;;;1.25;0.98;;;15.00;99.90;;;;;;4980506;28;20082;-88
2023/10/21 02:31:42;;;;;;;1.33;1.33;;;15.10;99.90;;;;;;4973112;28;20038;-88
2023/10/21 02:34:09;;;;;;;1.38;1.27;;;15.10;99.90;;;;;;4979967;28;20034;-90
2023/10/21 02:36:34;;;;;;;2.17;1.45;;;15.10;99.90;;;;;;4982775;28;20037;-90
2023/10/21 02:39:00;;;;;;;1.30;1.30;;;15.20;99.90;;;;;;4962288;28;20060;-89
2023/10/21 02:41:26;;;;;;;1.83;1.65;;;15.20;99.90;;;;;;4978221;28;20074;-88
2023/10/21 02:43:52;;;;;;;0.82;0.82;;;15.20;99.90;;;;;;4979837;28;20023;-89
2023/10/21 02:46:19;;;;;;;1.33;1.33;;;15.30;98.70;;;;;;4979487;28;20045;-87
2023/10/21 02:48:45;;;;;;;2.58;2.40;;;15.30;99.40;;;;;;4979889;28;20020;-90
2023/10/21 02:51:15;;;;;;;2.03;1.92;;;15.30;99.30;;;;;;4959623;28;20521;-89
2023/10/21 02:53:42;;;;;;;1.35;1.33;;;15.30;98.50;;;;;;4976371;28;20027;-86
2023/10/21 02:56:08;;;;;;;0.70;0.70;;;15.30;98.90;;;;;;4980201;28;20031;-88
2023/10/21 02:58:37;;;;;;;1.35;1.35;;;15.30;98.20;;;;;;4979877;28;20023;-88
2023/10/21 03:01:17;;;;;;;1.48;1.25;;;15.30;98.10;;;;;;4980468;28;20023;-87
2023/10/21 03:03:44;;;;;;;0.98;0.98;;;15.30;97.10;;;;;;4981644;28;20030;-91
2023/10/21 03:06:12;;;;;;;1.65;1.52;;;15.40;95.80;;;;;;4964361;28;20031;-88
2023/10/21 03:08:38;;;;;;;;;;;15.40;96.00;;;;;;4962657;28;20035;-89
2023/10/21 03:11:04;;;;;;;1.02;1.02;;;15.50;96.50;;;;;;4979925;28;19987;-88
2023/10/21 03:13:31;;;;;;;2.85;1.40;;;15.40;95.90;;;;;;4980031;28;20051;-89
2023/10/21 03:15:57;;;;;;;0.82;0.63;;;15.40;96.80;;;;;;4979808;28;20388;-89
2023/10/21 03:18:23;;;;;;;1.10;1.08;;;15.40;96.60;;;;;;4970755;28;20027;-89
2023/10/21 03:20:54;;;;;;;1.48;1.38;;;15.40;96.00;;;;;;4979376;28;20081;-87
2023/10/21 03:23:20;;;;;;;1.17;0.68;;;15.30;96.40;;;;;;4979868;28;20294;-90
2023/10/21 03:25:59;;;;;;;1.23;1.23;;;15.30;96.80;;;;;;4976690;28;20540;-87
2023/10/21 03:28:26;;;;;;;1.50;1.45;;;15.30;96.70;;;;;;4959543;29;20027;-89
2023/10/21 03:30:56;;;;;;;2.05;1.98;;;15.30;96.80;;;;;;4974986;28;20050;-88
2023/10/21 03:33:23;;;;;;;1.67;1.67;;;15.30;97.30;;;;;;4960923;28;20033;-90
2023/10/21 03:35:56;;;;;;;1.60;1.50;;;15.30;97.60;;;;;;4978382;28;20027;-88
2023/10/21 03:38:22;;;;;;;1.48;1.30;;;15.20;97.20;;;;;;4959475;28;20023;-89
2023/10/21 03:40:58;;;;;;;1.95;1.00;;;15.20;97.50;;;;;;4976419;28;20034;-87
2023/10/21 03:43:25;;;;;;;1.83;1.73;;;15.20;98.60;;;;;;4979821;28;20023;-88
2023/10/21 03:45:52;;;;;;;1.33;1.23;;;15.10;98.50;;;;;;4979478;28;20046;-89
2023/10/21 03:48:17;;;;;;;1.23;1.23;;;15.10;99.10;;;;;;4969216;28;20031;-89
2023/10/21 03:50:43;;;;;;;2.28;1.02;;;15.10;98.50;;;;;;4963585;28;20598;-90
2023/10/21 03:53:08;;;;;;;1.45;1.45;;;15.10;98.60;;;;;;4970261;28;20033;-87
2023/10/21 03:55:35;;;;;;;1.10;1.10;;;15.10;98.50;;;;;;4958420;29;20723;-89
2023/10/21 03:58:01;;;;;;;2.55;1.30;;;15.00;98.40;;;;;;4976935;28;20082;-89
2023/10/21 04:00:27;;;;;;;2.63;2.53;;;15.10;97.90;;;;;;4964646;28;20055;-89
2023/10/21 04:02:52;;;;;;;1.85;1.25;;;15.10;97.60;;;;;;4961042;28;20540;-90
2023/10/21 04:05:18;;;;;;;1.25;1.10;;;15.10;97.70;;;;;;4959552;28;20028;-89
2023/10/21 04:07:44;;;;;;;1.55;1.27;;;15.10;97.10;;;;;;4957020;28;20542;-90
2023/10/21 04:10:10;;;;;;;0.80;0.80;;;15.10;96.60;;;;;;4972924;28;20474;-88
2023/10/21 04:12:36;;;;;;;1.27;1.17;;;15.10;96.10;;;;;;4979102;28;20038;-87
2023/10/21 04:15:03;;;;;;;1.73;1.50;;;15.20;96.40;;;;;;4978495;28;20057;-88
2023/10/21 04:17:28;;;;;;;1.60;1.50;;;15.20;96.20;;;;;;4972702;28;20109;-89
2023/10/21 04:19:54;;;;;;;2.05;1.95;;;15.20;95.60;;;;;;4978228;28;20031;-90
2023/10/21 04:22:19;;;;;;;1.52;1.25;;;15.20;95.40;;;;;;4974925;28;20027;-88
2023/10/21 04:24:45;;;;;;;1.85;1.15;;;15.20;95.40;;;;;;4975176;28;20038;-87
2023/10/21 04:27:11;;;;;;;0.95;0.95;;;15.20;95.30;;;;;;4962021;28;20023;-88
2023/10/21 04:29:37;;;;;;;1.05;1.05;;;15.20;95.70;;;;;;4978266;28;20050;-89
2023/10/21 04:32:03;;;;;;;2.00;1.90;;;15.20;95.20;;;;;;4981681;28;20031;-87
2023/10/21 04:34:28;;;;;;;2.33;2.15;;;15.20;95.70;;;;;;4981112;28;20027;-93
2023/10/21 04:36:54;;;;;;;1.48;1.38;;;15.20;96.40;;;;;;4981498;28;20610;-89
2023/10/21 04:39:19;;;;;;;2.17;1.75;;;15.10;96.30;;;;;;4981341;28;20026;-89
2023/10/21 04:41:48;;;;;;;1.05;0.95;;;15.20;96.80;;;;;;4982647;28;20026;-89
2023/10/21 04:44:13;;;;;;;1.92;1.33;;;15.20;96.90;;;;;;4982107;28;20034;-89
2023/10/21 04:46:39;;;;;;;1.63;1.52;;;15.20;96.70;;;;;;4982219;28;20027;-91
2023/10/21 04:49:05;;;;;;;2.03;0.73;;;15.20;96.90;;;;;;4981734;28;20182;-89
2023/10/21 04:51:31;;;;;;;1.35;1.25;;;15.20;96.70;;;;;;4975636;28;20031;-89
2023/10/21 04:53:57;;;;;;;1.00;1.00;;;15.20;96.60;;;;;;4978744;28;20532;-89
2023/10/21 04:56:24;;;;;;;1.27;1.17;;;15.20;96.60;;;;;;4974631;28;20025;-87
2023/10/21 04:58:50;;;;;;;2.08;1.23;;;15.30;96.90;;;;;;4981361;28;20031;-88
2023/10/21 05:01:16;;;;;;;0.47;0.47;;;15.20;97.50;;;;;;4981774;28;20402;-92
2023/10/21 05:03:43;;;;;;;1.25;1.25;;;15.20;97.30;;;;;;4981558;28;20496;-90
2023/10/21 05:06:09;;;;;;;1.60;1.52;;;15.20;97.80;;;;;;4981610;28;20027;-88
2023/10/21 05:08:35;;;;;;;2.08;1.98;;;15.10;98.40;;;;;;4981581;28;20026;-89
2023/10/21 05:11:00;;;;;;;1.77;0.93;;;15.10;98.50;;;;;;4981159;28;20035;-88
2023/10/21 05:13:26;;;;;;;0.95;0.95;;;15.00;98.80;;;;;;4982410;28;20031;-88
2023/10/21 05:15:52;;;;;;;1.27;1.15;;;15.00;99.00;;;;;;4981733;28;20113;-87
2023/10/21 05:18:17;;;;;;;1.23;0.80;;;15.00;99.20;;;;;;4979500;28;20248;-87
2023/10/21 05:20:43;;;;;;;1.20;1.15;;;15.00;99.20;;;;;;4980128;28;20046;-89
2023/10/21 05:23:08;;;;;;;1.33;1.33;;;15.00;99.40;;;;;;4980597;28;20038;-88
2023/10/21 05:25:34;;;;;;;1.75;1.65;;;15.00;99.40;;;;;;4980674;28;20023;-90
2023/10/21 05:28:00;;;;;;;1.20;1.20;;;15.00;99.70;;;;;;4979819;28;20030;-88
2023/10/21 05:30:25;;;;;;;0.90;0.90;;;15.00;99.70;;;;;;4981457;28;20043;-88
2023/10/21 05:32:51;;;;;;;1.42;1.33;;;15.00;99.20;;;;;;4979689;28;20042;-89
2023/10/21 05:35:17;;;;;;;2.35;2.17;;;15.00;99.30;;;;;;4981296;28;20026;-88
2023/10/21 05:37:43;;;;;;;1.48;1.38;;;15.10;99.10;;;;;;4980268;28;20019;-89
2023/10/21 05:40:09;;;;;;;1.40;1.40;;;15.00;99.40;;;;;;4982066;28;20030;-88
2023/10/21 05:42:35;;;;;;;1.50;1.02;;;15.10;99.00;;;;;;4980782;28;20050;-87
2023/10/21 05:45:01;;;;;;;1.02;1.02;;;15.10;99.50;;;;;;4981640;28;20086;-90
2023/10/21 05:47:26;;;;;;;1.30;0.95;;;15.10;99.20;;;;;;4980967;28;20160;-88
2023/10/21 05:49:53;;;;;;;1.17;1.08;;;15.00;99.90;;;;;;4965872;28;20027;-89
2023/10/21 05:52:19;;;;;;;0.82;0.35;;;15.10;99.90;;;;;;4981409;28;20370;-88
2023/10/21 05:54:45;;;;;;;2.30;2.20;;;15.00;99.90;;;;;;4981457;28;20027;-86
2023/10/21 05:57:10;;;;;;;1.92;1.83;;;15.00;99.90;;;;;;4978517;28;20038;-89
2023/10/21 05:59:36;;;;;;;2.85;2.72;;;14.90;99.90;;;;;;4975667;28;20023;-89
2023/10/21 06:02:02;;;;;;;1.65;1.58;;;14.90;99.90;;;;;;4980312;28;20499;-88
2023/10/21 06:04:28;;;;;;;1.20;1.10;;;14.90;99.90;;;;;;4980233;28;20031;-89
2023/10/21 06:06:56;;;;;;;2.45;2.35;;;14.80;99.90;;;;;;4980563;28;20031;-90
2023/10/21 06:09:23;;;;;;;1.40;1.17;;;14.80;99.90;;;;;;4979870;28;20051;-88
2023/10/21 06:11:50;;;;;;;2.22;1.73;;;14.80;99.90;;;;;;4981492;28;20027;-89
2023/10/21 06:14:17;;;;;;;2.03;1.92;;;14.80;99.90;;;;;;4980039;28;20039;-91
2023/10/21 06:16:43;;;;;;;1.25;1.15;;;14.80;99.90;;;;;;4982857;28;20033;-89
2023/10/21 06:19:09;;;;;;;1.52;1.45;;;14.80;99.90;;;;;;4962087;28;20026;-89
2023/10/21 06:21:35;;;;;;;0.98;0.98;;;14.80;99.90;;;;;;4978429;28;20078;-89
2023/10/21 06:24:03;;;;;;;1.40;1.30;;;14.80;99.90;;;;;;4962583;28;20031;-89
2023/10/21 06:26:31;;;;;;;1.27;1.27;;;14.70;99.90;;;;;;4974489;28;20027;-90
2023/10/21 06:28:57;;;;;;;1.40;1.30;;;14.80;99.90;;;;;;4978733;28;20030;-89
2023/10/21 06:31:23;;;;;;;1.70;1.60;;;14.80;99.90;;;;;;4978345;28;20128;-88
2023/10/21 06:33:49;;;;;;;1.67;1.67;;;14.80;99.90;;;;;;4979240;28;20051;-90
2023/10/21 06:36:16;;;;;;;1.65;1.55;;;14.80;99.90;;;;;;4979534;28;20038;-89
2023/10/21 06:38:41;;;;;;;1.48;1.38;;;14.80;99.90;;;;;;4978799;28;20030;-89
2023/10/21 06:41:07;;;;;;;1.38;1.25;;;14.80;99.90;;;;;;4978428;28;20030;-88
2023/10/21 06:43:33;;;;;;;1.58;1.58;;;14.90;99.90;;;;;;4963029;28;20027;-90
2023/10/21 06:45:59;;;;;;;2.28;2.15;;;15.00;99.80;;;;;;4982782;28;20062;-90
2023/10/21 06:48:25;;;;;;;1.35;1.15;;;15.00;99.90;;;;;;4979714;28;20033;-90
2023/10/21 06:50:52;;;;;;;2.22;2.13;;;15.00;99.40;;;;;;4978446;28;20069;-88
2023/10/21 06:53:17;;;;;;;1.95;1.95;;;15.10;99.00;;;;;;4979359;28;20030;-89
2023/10/21 06:55:44;;;;;;;2.05;1.95;;;15.20;99.50;;;;;;4979264;28;20077;-91
2023/10/21 06:58:11;;;;;;;1.05;1.05;;;15.20;98.60;;;;;;4969866;28;20019;-89
2023/10/21 07:00:37;;;;;;;3.30;0.85;;;15.20;98.80;;;;;;4978128;28;20584;-88
2023/10/21 07:03:04;;;;;;;1.88;1.83;;;15.20;97.80;;;;;;4978465;28;20026;-89
2023/10/21 07:05:29;;;;;;;1.73;1.40;;;15.20;98.30;;;;;;4978928;28;20091;-89
2023/10/21 07:07:55;;;;;;;1.38;1.27;;;15.20;97.20;;;;;;4977575;28;20309;-88
2023/10/21 07:10:23;;;;;;;1.45;0.40;;;15.20;97.90;;;;;;4978771;28;20374;-89
2023/10/21 07:12:49;;;;;;;1.92;1.83;;;15.20;98.00;;;;;;4962115;28;20062;-89
2023/10/21 07:15:16;;;;;;;;;;;15.10;98.40;;;;;;4978531;28;20526;-88
2023/10/21 07:17:41;;;;;;;2.05;1.55;;;15.10;98.50;;;;;;4977812;28;19987;-87
2023/10/21 07:20:08;;;;;;;1.77;1.23;;;15.10;98.80;;;;;;4979817;28;20031;-89
2023/10/21 07:22:33;;;;;;;0.98;0.40;;;15.10;98.80;;;;;;4961382;28;20378;-89
2023/10/21 07:25:00;;;;;;;1.50;1.38;;;15.20;98.70;;;;;;4962112;28;20038;-90
2023/10/21 07:27:26;;;;;;;1.83;1.70;;;15.20;99.70;;;;;;4968624;28;20055;-89
2023/10/21 07:29:51;;;;;;;1.52;1.52;;;15.20;99.70;;;;;;4977058;28;20022;-91
2023/10/21 07:32:17;;;;;;;2.13;2.03;;;15.20;98.70;;;;;;4960448;28;20034;-91
2023/10/21 07:34:43;;;;;;;1.50;1.40;;;15.30;98.30;;;;;;4972860;28;20015;-90
2023/10/21 07:37:08;;;;;;;2.58;2.47;;;15.30;98.40;;;;;;4954971;28;20525;-89
2023/10/21 07:39:34;;;;;;;2.85;1.08;;;15.40;98.70;;;;;;4980430;28;20042;-89
2023/10/21 07:42:00;;;;;;;3.03;1.75;;;15.30;98.00;;;;;;4980648;28;20075;-88
2023/10/21 07:44:28;;;;;;;1.75;1.65;;;15.30;97.80;;;;;;4978553;28;20045;-90
2023/10/21 07:46:54;;;;;;;1.80;1.45;;;15.30;97.70;;;;;;4972116;28;20068;-88
2023/10/21 07:49:20;;;;;;;2.65;1.95;;;15.20;98.10;;;;;;4974218;28;20438;-91
2023/10/21 07:51:45;;;;;;;3.45;3.35;;;15.30;98.70;;;;;;4973907;28;20034;-90
2023/10/21 07:54:12;;;;;;;2.50;2.30;;;15.20;98.80;;;;;;4976726;28;20023;-89
2023/10/21 07:56:37;;;;;;;2.38;1.77;;;15.20;98.80;;;;;;4981078;28;20033;-88
2023/10/21 07:59:03;;;;;;;2.75;2.17;;;15.20;97.80;;;;;;4958075;28;20023;-89
2023/10/21 08:01:29;;;;;;;2.58;2.08;;;15.30;98.20;;;;;;4969613;28;20027;-87
2023/10/21 08:03:54;;;;;;;2.60;2.40;;;15.30;97.40;;;;;;4984387;28;20027;-90
2023/10/21 08:06:21;;;;;;;13.35;4.30;;;15.30;97.30;;;;;;4994568;28;20041;-87
2023/10/21 08:08:46;;;;;;;22.65;6.50;;;15.30;97.00;;;;;;4994563;28;20037;-86
2023/10/21 08:11:12;;;;;;;1.95;1.85;;;15.40;97.30;;;;;;4975500;28;20050;-86
2023/10/21 08:13:38;;;;;;;2.72;2.35;;;15.50;97.70;;;;;;4998365;28;20035;-90
2023/10/21 08:16:04;;;;;;;1.85;1.73;;;15.50;94.40;;;;;;4993778;28;20047;-89
2023/10/21 08:18:30;;;;;;;2.55;1.48;;;15.50;94.80;;;;;;4968322;28;20051;-90
2023/10/21 08:20:55;;;;;;;1.38;1.33;;;15.50;93.60;;;;;;4982895;28;20038;-89
2023/10/21 08:23:21;;;;;;;2.25;1.48;;;15.50;92.00;;;;;;4985422;28;20026;-89
2023/10/21 08:25:47;;;;;;;1.40;0.35;;;15.60;91.50;;;;;;4958013;28;20264;-89
2023/10/21 08:28:12;;;;;;;1.85;1.77;;;15.60;90.00;;;;;;4984201;28;20042;-88
2023/10/21 08:30:38;;;;;;;1.75;1.25;;;15.70;85.00;;;;;;4985095;28;20038;-90
2023/10/21 08:33:07;;;;;;;3.40;2.25;;;15.90;86.40;;;;;;4993767;28;20038;-88
2023/10/21 08:35:34;;;;;;;12.10;1.90;;;16.00;85.50;;;;;;4999065;28;20050;-87
2023/10/21 08:37:59;;;;;;;8.73;2.20;;;16.10;81.80;;;;;;4997369;28;20051;-91
2023/10/21 08:40:25;;;;;;;1.33;1.33;;;16.20;80.70;;;;;;4998308;28;20040;-87
2023/10/21 08:42:51;;;;;;;2.03;1.23;;;16.20;79.20;;;;;;4998214;28;20014;-89
2023/10/21 08:45:19;;;;;;;2.65;1.52;;;16.20;79.10;;;;;;4996378;28;20054;-91
2023/10/21 08:47:45;;;;;;;2.03;1.23;;;16.20;79.30;;;;;;4995580;28;20272;-92
2023/10/21 08:50:13;;;;;;;1.85;1.05;;;16.20;78.40;;;;;;4993450;28;20153;-87
2023/10/21 08:52:40;;;;;;;1.45;1.35;;;16.30;79.50;;;;;;5002555;28;20035;-88
2023/10/21 08:55:06;;;;;;;5.03;2.15;;;16.40;78.10;;;;;;4987396;28;20034;-89
2023/10/21 08:57:33;;;;;;;1.52;1.52;;;16.40;78.00;;;;;;4987982;28;20026;-87
2023/10/21 09:00:00;;;;;;;1.60;1.50;;;16.40;78.10;;;;;;4980024;28;20022;-91
2023/10/21 09:02:26;;;;;;;1.00;0.98;;;16.30;79.40;;;;;;4993846;28;20026;-92
2023/10/21 09:04:51;;;;;;;2.17;1.90;;;16.30;79.70;;;;;;5003644;28;20021;-94
2023/10/21 09:07:17;;;;;;;1.60;1.50;;;16.40;80.70;;;;;;4986901;28;20039;-91
2023/10/21 09:09:42;;;;;;;2.75;2.42;;;16.30;80.70;;;;;;5002367;28;20018;-89
2023/10/21 09:12:14;;;;;;;2.05;1.95;;;16.10;80.50;;;;;;5000717;28;20089;-92
2023/10/21 09:14:58;;;;;;;1.23;1.13;;;16.10;80.70;;;;;;4994219;28;20026;-92
2023/10/21 09:17:35;;;;;;;1.25;1.00;;;16.20;80.50;;;;;;4992409;28;20038;-93
2023/10/21 09:20:08;;;;;;;2.70;1.15;;;16.30;78.80;;;;;;4989013;28;20031;-90
2023/10/21 09:22:35;;;;;;;2.45;2.25;;;16.30;77.20;;;;;;4994446;28;20019;-89
2023/10/21 09:25:20;;;;;;;1.55;1.45;;;16.30;78.80;;;;;;4997557;28;20115;-93
2023/10/21 09:27:53;;;;;;;2.33;1.85;;;16.40;78.50;;;;;;4996245;28;20023;-92
2023/10/21 09:30:20;;;;;;;1.33;1.08;;;16.50;77.30;;;;;;4982119;28;20050;-91
2023/10/21 09:32:46;;;;;;;2.42;2.33;;;16.50;76.40;;;;;;4977995;28;20035;-89
2023/10/21 09:35:16;;;;;;;1.80;1.70;;;16.60;75.90;;;;;;4982164;28;20505;-91
2023/10/21 09:37:42;;;;;;;1.35;1.08;;;16.70;75.50;;;;;;4981867;28;20031;-89
2023/10/21 09:40:09;;;;;;;2.40;1.95;;;16.80;76.40;;;;;;4967731;28;20055;-91
2023/10/21 09:42:41;;;;;;;1.70;1.60;;;16.90;76.30;;;;;;4985302;28;20015;-90
2023/10/21 09:45:09;;;;;;;2.25;2.15;;;17.30;77.20;;;;;;4970101;28;20011;-92
2023/10/21 09:47:39;;;;;;;1.50;1.40;;;17.70;74.50;;;;;;4987592;28;20037;-89
2023/10/21 09:50:09;;;;;;;1.38;1.27;;;18.10;73.10;;;;;;4992591;28;20023;-92
2023/10/21 09:53:23;;;;;;;1.98;1.88;;;18.20;71.40;;;;;;4985746;28;20007;-92
2023/10/21 09:55:49;;;;;;;2.05;1.40;;;18.30;70.20;;;;;;4952102;28;20440;-91
2023/10/21 09:58:17;;;;;;;2.55;2.35;;;18.10;68.80;;;;;;4988386;28;20015;-91
2023/10/21 10:00:43;;;;;;;2.58;1.92;;;18.10;69.50;;;;;;4960548;28;20054;-89
2023/10/21 10:03:10;;;;;;;1.92;1.83;;;18.20;69.40;;;;;;4974483;28;20083;-90
2023/10/21 10:05:38;;;;;;;2.88;2.38;;;18.10;70.70;;;;;;4973683;28;20026;-88
2023/10/21 10:08:04;;;;;;;4.20;2.00;;;18.20;70.40;;;;;;4978802;28;20038;-89
2023/10/21 10:10:31;;;;;;;3.85;2.40;;;18.30;70.70;;;;;;4960905;28;20451;-91
2023/10/21 10:13:12;;;;;;;1.63;1.52;;;18.60;69.80;;;;;;4963360;28;20023;-91
2023/10/21 10:15:41;;;;;;;1.95;1.65;;;18.60;68.40;;;;;;4980683;28;20037;-89
2023/10/21 10:18:09;;;;;;;1.80;1.67;;;18.30;67.10;;;;;;4981318;28;20019;-88
2023/10/21 10:20:44;;;;;;;3.20;2.05;;;18.00;68.30;;;;;;4971903;28;20492;-88
2023/10/21 10:23:10;;;;;;;1.33;1.33;;;17.70;69.30;;;;;;4988829;28;20018;-88
2023/10/21 10:25:38;;;;;;;2.60;1.48;;;17.60;69.70;;;;;;4988006;28;20038;-88
2023/10/21 10:28:16;;;;;;;1.63;1.45;;;17.10;71.00;;;;;;4973325;28;20034;-90
2023/10/21 10:30:45;;;;;;;2.97;2.78;;;16.90;71.50;;;;;;4971557;28;20058;-88
2023/10/21 10:33:31;;;;;;;2.70;1.67;;;17.00;72.30;;;;;;4993778;28;20007;-92
2023/10/21 10:36:00;;;;;;;2.90;2.80;;;17.30;72.10;;;;;;4980800;28;20102;-92
2023/10/21 10:38:36;;;;;;;2.83;2.53;;;17.70;68.60;;;;;;4996666;28;20204;-90
2023/10/21 10:41:15;;;;;;;2.60;2.40;;;18.00;69.80;;;;;;4980214;28;20023;-90
2023/10/21 10:43:45;;;;;;;2.05;1.95;;;18.40;68.20;;;;;;4983560;28;20027;-88
2023/10/21 10:46:36;;;;;;;1.30;1.20;;;18.70;64.00;;;;;;4997744;28;20011;-89
2023/10/21 10:49:05;;;;;;;2.22;2.08;;;18.90;62.00;;;;;;4970299;28;20039;-89
2023/10/21 10:51:45;;;;;;;1.33;1.33;;;19.10;60.40;;;;;;4973292;28;20117;-86
2023/10/21 10:54:18;;;;;;;1.42;1.42;;;19.20;60.90;;;;;;4997281;28;20118;-94
2023/10/21 10:56:46;;;;;;;1.98;1.88;;;19.30;61.50;;;;;;4999154;28;20090;-92
2023/10/21 10:59:17;;;;;;;2.10;2.03;;;19.30;62.10;;;;;;4995613;28;20010;-94
2023/10/21 11:01:43;;;;;;;3.97;1.67;;;19.10;61.50;;;;;;5007140;28;20010;-90
2023/10/21 11:04:14;;;;;;;1.95;1.83;;;18.70;64.00;;;;;;5006391;28;20017;-96
2023/10/21 11:06:40;;;;;;;2.25;1.50;;;18.00;65.30;;;;;;5005018;28;20022;-93
2023/10/21 11:09:16;;;;;;;2.03;1.95;;;17.60;66.20;;;;;;4994932;28;20027;-93
2023/10/21 11:11:50;;;;;;;2.17;2.05;;;17.50;67.30;;;;;;4996443;28;20042;-94
2023/10/21 11:14:20;;;;;;;1.85;1.73;;;17.50;68.50;;;;;;4989033;28;20057;-95
2023/10/21 11:16:49;;;;;;;3.08;1.90;;;17.60;69.00;;;;;;4975328;28;20046;-95
2023/10/21 11:19:17;;;;;;;2.20;2.00;;;17.50;69.30;;;;;;4982722;28;20031;-94
2023/10/21 11:21:48;;;;;;;2.20;1.90;;;17.30;70.90;;;;;;4967926;28;20022;-93
2023/10/21 11:24:14;;;;;;;2.25;2.08;;;17.50;71.50;;;;;;4985101;28;20041;-91
2023/10/21 11:26:41;;;;;;;2.75;2.08;;;17.40;71.00;;;;;;4991948;28;20038;-93
2023/10/21 11:29:07;;;;;;;1.15;1.08;;;17.60;70.60;;;;;;4973498;28;20041;-93
2023/10/21 11:31:38;;;;;;;2.22;1.67;;;17.70;69.80;;;;;;4978086;28;20018;-89
2023/10/21 11:34:15;;;;;;;2.17;2.00;;;17.80;70.30;;;;;;4977816;28;20050;-92
2023/10/21 11:36:46;;;;;;;1.77;1.27;;;17.70;70.70;;;;;;4994361;28;20038;-93
2023/10/21 11:39:14;;;;;;;1.65;1.55;;;17.80;69.50;;;;;;4974612;28;20064;-96
2023/10/21 11:41:48;;;;;;;2.30;2.10;;;17.80;68.30;;;;;;4988779;28;20011;-90
2023/10/21 11:44:17;;;;;;;1.50;1.30;;;17.90;69.40;;;;;;4986167;28;20022;-93
2023/10/21 11:46:43;;;;;;;1.95;1.75;;;17.90;66.90;;;;;;4977564;28;20026;-92
2023/10/21 11:49:19;;;;;;;1.98;1.83;;;18.10;66.80;;;;;;4991154;28;20042;-91
2023/10/21 11:51:49;;;;;;;2.40;1.08;;;18.10;64.10;;;;;;4974692;28;20103;-89
2023/10/21 11:57:15;;;;;;;2.75;1.70;;;18.10;63.30;;;;;;5156562;23;20086;-93
2023/10/21 12:37:30;;;;;;;2.15;2.05;;;18.20;61.50;;;;;;5002952;28;20041;-89
2023/10/21 12:40:25;;;;;;;2.25;2.05;;;19.10;59.80;;;;;;4998343;28;20033;-92
2023/10/21 12:42:48;;;;;;;1.55;1.45;;;20.20;56.30;;;;;;5014243;28;20022;-92
2023/10/21 12:45:20;;;;;;;2.38;1.48;;;21.00;51.30;;;;;;5014036;28;20037;-91
2023/10/21 12:47:48;;;;;;;1.45;1.30;;;21.50;50.40;;;;;;4987861;28;20471;-91
2023/10/21 12:50:20;;;;;;;3.10;1.80;;;21.30;47.90;;;;;;5015666;28;20010;-92
2023/10/21 12:52:47;;;;;;;1.70;1.60;;;21.30;49.00;;;;;;5013078;28;20072;-89
2023/10/21 12:55:14;;;;;;;2.92;1.55;;;21.30;48.20;;;;;;5003259;28;20061;-89
2023/10/21 12:57:43;;;;;;;2.20;2.05;;;21.50;47.60;;;;;;4984658;28;20023;-91
2023/10/21 13:00:09;;;;;;;1.90;1.15;;;21.60;47.60;;;;;;4974898;28;20077;-90
2023/10/21 13:02:35;;;;;;;2.25;1.52;;;21.40;47.70;;;;;;5000179;28;20573;-91
2023/10/21 13:05:05;;;;;;;2.95;1.35;;;21.50;46.90;;;;;;5001403;28;20023;-92
2023/10/21 13:07:33;;;;;;;1.38;1.25;;;21.30;50.00;;;;;;5000738;28;20038;-90
2023/10/21 13:09:59;;;;;;;1.10;1.05;;;21.70;50.00;;;;;;5000142;28;20029;-89
2023/10/21 13:12:25;;;;;;;3.50;1.27;;;22.40;46.70;;;;;;5008418;28;20108;-89
2023/10/21 13:14:52;;;;;;;2.55;1.52;;;22.40;48.10;;;;;;5004564;28;20031;-90
2023/10/21 13:17:18;;;;;;;1.90;1.80;;;21.90;46.00;;;;;;4984270;28;20022;-91
2023/10/21 13:19:47;;;;;;;2.97;1.65;;;22.10;46.70;;;;;;5000842;28;20105;-94
2023/10/21 13:22:13;;;;;;;2.13;1.50;;;22.50;46.50;;;;;;4993108;28;20075;-92
2023/10/21 13:24:39;;;;;;;2.00;1.70;;;22.60;44.20;;;;;;5015025;28;20055;-92
2023/10/21 13:27:05;;;;;;;1.65;1.38;;;22.70;43.60;;;;;;4983300;28;20050;-92
2023/10/21 13:29:34;;;;;;;2.08;1.83;;;23.00;45.20;;;;;;5000222;28;20041;-92